createdAt,value
2018-05-02T00:01:14.369Z,96.90
2018-05-02T00:03:42.451Z,96.80
2018-05-02T00:06:10.957Z,97.10
2018-05-02T00:08:39.390Z,96.50
2018-05-02T00:11:08.233Z,96.60
2018-05-02T00:13:36.337Z,96.60
2018-05-02T00:16:05.137Z,96.50
2018-05-02T00:18:33.178Z,96.80
2018-05-02T00:21:01.542Z,96.40
2018-05-02T00:23:30.121Z,96.90
2018-05-02T00:25:58.144Z,96.70
2018-05-02T00:28:26.294Z,96.00
2018-05-02T00:30:54.602Z,96.50
2018-05-02T00:33:22.654Z,96.50
2018-05-02T00:35:50.815Z,96.80
2018-05-02T00:38:19.126Z,96.60
2018-05-02T00:40:47.184Z,96.60
2018-05-02T00:43:15.428Z,97.40
2018-05-02T00:45:44.989Z,97.40
2018-05-02T00:48:13.010Z,97.30
2018-05-02T00:50:41.471Z,97.00
2018-05-02T00:53:10.004Z,96.30
2018-05-02T00:55:38.067Z,96.50
2018-05-02T00:58:06.301Z,96.20
2018-05-02T01:00:34.827Z,96.00
2018-05-02T01:03:02.877Z,96.20
2018-05-02T01:05:31.442Z,96.30
2018-05-02T01:08:00.907Z,95.60
2018-05-02T01:10:28.961Z,95.40
2018-05-02T01:12:57.499Z,95.00
2018-05-02T01:15:26.217Z,95.00
2018-05-02T01:17:55.009Z,95.50
2018-05-02T01:20:23.520Z,95.50
2018-05-02T01:22:52.089Z,95.80
2018-05-02T01:25:20.147Z,95.40
2018-05-02T01:27:48.677Z,95.70
2018-05-02T01:30:17.227Z,95.70
2018-05-02T01:32:45.278Z,95.30
2018-05-02T01:35:13.491Z,95.20
2018-05-02T01:37:41.702Z,95.10
2018-05-02T01:40:09.758Z,95.40
2018-05-02T01:42:38.011Z,95.20
2018-05-02T01:45:06.397Z,94.80
2018-05-02T01:47:34.480Z,94.90
2018-05-02T01:50:03.169Z,94.50
2018-05-02T01:52:31.700Z,94.90
2018-05-02T01:54:59.786Z,95.40
2018-05-02T01:57:28.287Z,94.00
2018-05-02T01:59:56.840Z,94.20
2018-05-02T02:02:24.911Z,93.30
2018-05-02T02:04:53.446Z,93.80
2018-05-02T02:07:22.095Z,93.60
2018-05-02T02:09:50.113Z,94.00
2018-05-02T02:12:18.623Z,94.40
2018-05-02T02:14:47.108Z,94.10
2018-05-02T02:17:15.153Z,94.30
2018-05-02T02:19:43.392Z,94.20
2018-05-02T02:22:11.936Z,94.20
2018-05-02T02:24:40.001Z,94.20
2018-05-02T02:27:08.535Z,94.50
2018-05-02T02:29:37.063Z,94.60
2018-05-02T02:32:05.198Z,94.80
2018-05-02T02:34:33.359Z,94.00
2018-05-02T02:37:01.901Z,94.40
2018-05-02T02:39:29.950Z,94.40
2018-05-02T02:41:58.508Z,94.10
2018-05-02T02:44:27.224Z,94.50
2018-05-02T02:46:56.013Z,94.60
2018-05-02T02:49:24.563Z,94.30
2018-05-02T02:51:53.092Z,94.90
2018-05-02T02:54:21.132Z,94.50
2018-05-02T02:56:49.680Z,94.30
2018-05-02T02:59:17.886Z,94.60
2018-05-02T03:01:46.694Z,94.00
2018-05-02T03:04:15.134Z,94.00
2018-05-02T03:06:43.680Z,93.80
2018-05-02T03:09:11.733Z,94.50
2018-05-02T03:11:40.256Z,93.90
2018-05-02T03:14:08.464Z,93.60
2018-05-02T03:16:36.503Z,93.70
2018-05-02T03:19:04.802Z,93.60
2018-05-02T03:21:34.252Z,94.30
2018-05-02T03:24:02.307Z,94.00
2018-05-02T03:26:30.460Z,93.70
2018-05-02T03:28:58.957Z,93.80
2018-05-02T03:31:27.789Z,92.90
2018-05-02T03:33:56.298Z,93.30
2018-05-02T03:36:24.509Z,93.10
2018-05-02T03:38:52.567Z,93.10
2018-05-02T03:41:21.101Z,93.00
2018-05-02T03:43:49.267Z,93.60
2018-05-02T03:46:17.313Z,93.50
2018-05-02T03:48:45.408Z,93.30
2018-05-02T03:51:14.170Z,93.60
2018-05-02T03:53:42.226Z,93.00
2018-05-02T03:56:10.753Z,93.10
2018-05-02T03:58:39.299Z,93.20
2018-05-02T04:01:19.122Z,93.10
2018-05-02T04:04:00.043Z,93.80
2018-05-02T04:06:36.888Z,93.80
2018-05-02T04:09:05.138Z,93.80
2018-05-02T04:11:34.214Z,93.80
2018-05-02T04:14:02.596Z,93.30
2018-05-02T04:16:31.142Z,93.70
2018-05-02T04:18:59.176Z,93.50
2018-05-02T04:21:27.285Z,93.60
2018-05-02T04:23:55.651Z,93.60
2018-05-02T04:26:23.716Z,93.10
2018-05-02T04:28:52.248Z,93.80
2018-05-02T04:31:20.460Z,93.40
2018-05-02T04:33:48.510Z,93.10
2018-05-02T04:36:17.068Z,93.00
2018-05-02T04:38:45.609Z,93.20
2018-05-02T04:41:13.662Z,93.30
2018-05-02T04:43:42.207Z,92.70
2018-05-02T04:46:10.437Z,92.90
2018-05-02T04:48:38.486Z,92.90
2018-05-02T04:51:06.734Z,93.00
2018-05-02T04:53:35.269Z,93.20
2018-05-02T04:56:03.337Z,92.60
2018-05-02T04:58:31.861Z,92.50
2018-05-02T05:01:00.136Z,92.40
2018-05-02T05:03:28.207Z,92.60
2018-05-02T05:05:56.365Z,92.30
2018-05-02T05:08:25.114Z,92.30
2018-05-02T05:10:53.913Z,92.10
2018-05-02T05:13:22.121Z,91.90
2018-05-02T05:15:50.419Z,92.50
2018-05-02T05:18:18.470Z,91.90
2018-05-02T05:20:46.946Z,91.80
2018-05-02T05:23:15.132Z,92.00
2018-05-02T05:25:43.183Z,91.70
2018-05-02T05:28:11.592Z,91.60
2018-05-02T05:30:40.077Z,91.80
2018-05-02T05:33:08.148Z,91.70
2018-05-02T05:35:36.399Z,91.60
2018-05-02T05:38:04.733Z,92.20
2018-05-02T05:40:33.544Z,91.60
2018-05-02T05:43:02.059Z,91.60
2018-05-02T05:45:30.600Z,91.80
2018-05-02T05:47:58.651Z,91.90
2018-05-02T05:50:27.177Z,91.60
2018-05-02T05:52:55.739Z,91.40
2018-05-02T05:55:23.793Z,92.10
2018-05-02T05:57:52.325Z,91.50
2018-05-02T06:00:20.871Z,91.50
2018-05-02T06:02:48.922Z,91.30
2018-05-02T06:05:17.484Z,91.50
2018-05-02T06:07:46.801Z,91.50
2018-05-02T06:10:14.834Z,91.50
2018-05-02T06:12:43.071Z,91.60
2018-05-02T06:15:11.237Z,91.60
2018-05-02T06:17:39.293Z,91.90
2018-05-02T06:20:07.526Z,90.90
2018-05-02T06:22:36.276Z,90.90
2018-05-02T06:25:04.335Z,90.70
2018-05-02T06:27:32.874Z,91.10
2018-05-02T06:30:01.415Z,91.00
2018-05-02T06:32:29.464Z,91.40
2018-05-02T06:34:57.990Z,91.50
2018-05-02T06:37:26.738Z,91.60
2018-05-02T06:39:55.542Z,91.70
2018-05-02T06:42:24.048Z,91.70
2018-05-02T06:44:52.613Z,91.60
2018-05-02T06:47:20.669Z,91.10
2018-05-02T06:49:49.198Z,91.10
2018-05-02T06:52:17.390Z,91.60
2018-05-02T06:54:45.482Z,91.70
2018-05-02T06:57:13.878Z,91.40
2018-05-02T06:59:42.448Z,91.20
2018-05-02T07:02:11.244Z,91.30
2018-05-02T07:04:39.780Z,91.10
2018-05-02T07:07:08.391Z,91.10
2018-05-02T07:09:36.409Z,91.00
2018-05-02T07:12:04.632Z,91.00
2018-05-02T07:14:33.860Z,91.10
2018-05-02T07:17:01.920Z,91.00
2018-05-02T07:19:30.343Z,91.10
2018-05-02T07:21:58.773Z,90.50
2018-05-02T07:24:26.811Z,90.70
2018-05-02T07:26:55.236Z,90.50
2018-05-02T07:29:24.039Z,90.70
2018-05-02T07:31:52.119Z,91.00
2018-05-02T07:34:20.609Z,90.60
2018-05-02T07:36:48.764Z,90.70
2018-05-02T07:39:16.825Z,91.00
2018-05-02T07:41:45.133Z,91.10
2018-05-02T07:44:13.878Z,90.40
2018-05-02T07:46:42.680Z,90.60
2018-05-02T07:49:11.196Z,90.60
2018-05-02T07:51:39.746Z,90.10
2018-05-02T07:54:07.795Z,89.20
2018-05-02T07:56:36.370Z,88.80
2018-05-02T07:59:04.521Z,90.00
2018-05-02T08:01:32.581Z,90.20
2018-05-02T08:04:00.844Z,90.50
2018-05-02T08:06:29.103Z,90.50
2018-05-02T08:08:57.150Z,91.10
2018-05-02T08:11:25.676Z,90.30
2018-05-02T08:13:53.741Z,90.40
2018-05-02T08:16:21.847Z,90.40
2018-05-02T08:18:50.511Z,90.70
2018-05-02T08:21:18.574Z,90.50
2018-05-02T08:23:46.637Z,90.70
2018-05-02T08:26:15.030Z,90.60
2018-05-02T08:28:43.088Z,90.50
2018-05-02T08:31:11.182Z,90.50
2018-05-02T08:33:39.332Z,90.00
2018-05-02T08:36:07.402Z,88.90
2018-05-02T08:38:35.473Z,89.30
2018-05-02T08:41:03.849Z,87.20
2018-05-02T08:43:31.923Z,89.70
2018-05-02T08:45:59.995Z,88.70
2018-05-02T08:48:28.576Z,87.50
2018-05-02T08:50:56.646Z,87.80
2018-05-02T08:53:24.725Z,88.70
2018-05-02T08:55:53.096Z,88.80
2018-05-02T08:58:21.188Z,85.70
2018-05-02T09:00:49.244Z,86.80
2018-05-02T09:03:17.634Z,88.30
2018-05-02T09:05:45.699Z,87.40
2018-05-02T09:08:14.246Z,86.30
2018-05-02T09:10:42.758Z,85.00
2018-05-02T09:13:10.847Z,86.50
2018-05-02T09:15:38.959Z,85.70
2018-05-02T09:18:07.276Z,85.90
2018-05-02T09:20:35.345Z,86.70
2018-05-02T09:23:03.414Z,87.00
2018-05-02T09:25:31.793Z,87.50
2018-05-02T09:27:59.870Z,87.80
2018-05-02T09:30:27.931Z,88.10
2018-05-02T09:32:56.333Z,86.90
2018-05-02T09:35:24.411Z,86.20
2018-05-02T09:37:52.469Z,86.50
2018-05-02T09:40:20.848Z,84.50
2018-05-02T09:42:48.921Z,84.80
2018-05-02T09:45:16.983Z,84.30
2018-05-02T09:47:45.415Z,84.00
2018-05-02T09:50:14.228Z,84.70
2018-05-02T09:52:42.287Z,84.60
2018-05-02T09:55:10.823Z,84.30
2018-05-02T09:57:38.897Z,83.00
2018-05-02T10:00:07.730Z,83.90
2018-05-02T10:02:36.244Z,83.40
2018-05-02T10:05:04.309Z,83.70
2018-05-02T10:07:32.382Z,81.30
2018-05-02T10:10:01.257Z,82.70
2018-05-02T10:12:29.387Z,82.40
2018-05-02T10:14:57.388Z,81.60
2018-05-02T10:17:25.902Z,81.00
2018-05-02T10:19:53.966Z,80.50
2018-05-02T10:22:22.077Z,81.00
2018-05-02T10:24:51.361Z,83.30
2018-05-02T10:27:19.428Z,83.20
2018-05-02T10:29:47.501Z,82.00
2018-05-02T10:32:15.860Z,83.70
2018-05-02T10:34:43.922Z,82.00
2018-05-02T10:37:11.987Z,83.00
2018-05-02T10:39:40.194Z,82.40
2018-05-02T10:42:08.257Z,84.00
2018-05-02T10:44:36.325Z,83.90
2018-05-02T10:47:04.620Z,84.40
2018-05-02T10:49:32.688Z,83.50
2018-05-02T10:52:00.789Z,84.00
2018-05-02T10:54:29.436Z,82.30
2018-05-02T10:56:57.493Z,84.00
2018-05-02T10:59:25.599Z,85.00
2018-05-02T11:01:54.866Z,83.60
2018-05-02T11:04:22.938Z,83.60
2018-05-02T11:06:51.030Z,85.00
2018-05-02T11:09:19.395Z,84.10
2018-05-02T11:11:47.950Z,82.20
2018-05-02T11:14:16.043Z,83.00
2018-05-02T11:16:44.528Z,82.80
2018-05-02T11:19:12.594Z,81.70
2018-05-02T11:21:40.661Z,81.00
2018-05-02T11:24:09.056Z,79.50
2018-05-02T11:26:37.133Z,78.20
2018-05-02T11:29:05.196Z,78.70
2018-05-02T11:31:33.448Z,78.30
2018-05-02T11:34:01.504Z,78.20
2018-05-02T11:36:29.567Z,76.90
2018-05-02T11:38:58.099Z,76.90
2018-05-02T11:41:26.163Z,77.60
2018-05-02T11:43:54.251Z,77.90
2018-05-02T11:46:23.534Z,80.00
2018-05-02T11:48:51.601Z,79.80
2018-05-02T11:51:19.677Z,77.50
2018-05-02T11:53:48.067Z,77.50
2018-05-02T11:56:16.129Z,78.70
2018-05-02T11:58:44.202Z,80.10
2018-05-02T12:01:12.901Z,81.20
2018-05-02T12:03:41.721Z,78.50
2018-05-02T12:06:09.778Z,78.40
2018-05-02T12:08:38.350Z,78.40
2018-05-02T12:11:07.181Z,79.20
2018-05-02T12:13:35.868Z,79.10
2018-05-02T12:16:04.414Z,79.70
2018-05-02T12:18:32.448Z,79.90
2018-05-02T12:21:00.528Z,80.40
2018-05-02T12:23:29.225Z,79.20
2018-05-02T12:25:58.052Z,77.70
2018-05-02T12:28:26.119Z,77.70
2018-05-02T12:30:54.392Z,77.50
2018-05-02T12:33:22.462Z,79.70
2018-05-02T12:35:50.534Z,78.30
2018-05-02T12:38:19.180Z,80.00
2018-05-02T12:40:47.264Z,75.90
2018-05-02T12:43:15.314Z,77.50
2018-05-02T12:45:43.560Z,76.60
2018-05-02T12:48:11.633Z,76.00
2018-05-02T12:50:39.700Z,76.80
2018-05-02T12:53:08.209Z,77.80
2018-05-02T12:55:36.290Z,77.50
2018-05-02T12:58:04.350Z,78.20
2018-05-02T13:00:32.730Z,79.30
2018-05-02T13:03:00.826Z,79.30
2018-05-02T13:05:29.669Z,78.50
2018-05-02T13:07:58.172Z,78.50
2018-05-02T13:10:26.306Z,80.90
2018-05-02T13:12:54.330Z,78.90
2018-05-02T13:15:23.169Z,81.80
2018-05-02T13:17:51.243Z,79.70
2018-05-02T13:20:19.311Z,81.30
2018-05-02T13:22:47.553Z,80.80
2018-05-02T13:25:16.386Z,80.10
2018-05-02T13:27:44.453Z,80.00
2018-05-02T13:30:12.682Z,82.30
2018-05-02T13:32:41.515Z,81.80
2018-05-02T13:35:09.605Z,81.80
2018-05-02T13:37:38.109Z,82.00
2018-05-02T13:40:06.181Z,81.90
2018-05-02T13:42:34.273Z,83.60
2018-05-02T13:45:03.561Z,83.60
2018-05-02T13:47:32.398Z,81.00
2018-05-02T13:50:00.473Z,80.90
2018-05-02T13:52:29.020Z,81.30
2018-05-02T13:54:57.845Z,82.70
2018-05-02T13:57:25.989Z,82.60
2018-05-02T13:59:54.131Z,82.00
2018-05-02T14:02:22.193Z,83.90
2018-05-02T14:04:50.266Z,82.50
2018-05-02T14:07:18.682Z,83.50
2018-05-02T14:09:46.759Z,82.30
2018-05-02T14:12:14.823Z,82.70
2018-05-02T14:14:43.186Z,81.60
2018-05-02T14:17:12.626Z,82.10
2018-05-02T14:19:40.692Z,81.90
2018-05-02T14:22:09.230Z,82.20
2018-05-02T14:24:37.296Z,81.50
2018-05-02T14:27:05.373Z,81.80
2018-05-02T14:29:33.834Z,82.30
2018-05-02T14:32:01.905Z,82.40
2018-05-02T14:34:29.971Z,82.20
2018-05-02T14:36:58.595Z,82.60
2018-05-02T14:39:27.433Z,83.10
2018-05-02T14:41:55.539Z,83.10
2018-05-02T14:44:24.028Z,84.40
2018-05-02T14:46:52.848Z,84.60
2018-05-02T14:49:20.915Z,83.90
2018-05-02T14:51:49.299Z,83.10
2018-05-02T14:54:17.364Z,84.80
2018-05-02T14:56:45.429Z,85.40
2018-05-02T14:59:13.990Z,86.00
2018-05-02T15:01:42.833Z,86.00
2018-05-02T15:04:10.897Z,85.90
2018-05-02T15:06:39.447Z,86.60
2018-05-02T15:09:07.533Z,86.30
2018-05-02T15:11:35.601Z,86.30
2018-05-02T15:14:04.051Z,86.50
2018-05-02T15:16:32.118Z,86.50
2018-05-02T15:19:00.849Z,88.60
2018-05-02T15:21:29.393Z,88.10
2018-05-02T15:23:58.225Z,88.40
2018-05-02T15:26:26.304Z,88.30
2018-05-02T15:28:54.853Z,88.30
2018-05-02T15:31:22.917Z,89.20
2018-05-02T15:33:51.748Z,87.70
2018-05-02T15:36:19.997Z,87.60
2018-05-02T15:38:48.078Z,87.50
2018-05-02T15:41:16.155Z,88.60
2018-05-02T15:43:44.777Z,88.00
2018-05-02T15:46:12.855Z,88.70
2018-05-02T15:48:40.920Z,89.60
2018-05-02T15:51:09.052Z,88.70
2018-05-02T15:53:37.129Z,87.30
2018-05-02T15:56:05.233Z,89.10
2018-05-02T15:58:33.462Z,89.70
2018-05-02T16:01:01.457Z,89.40
2018-05-02T16:03:29.545Z,87.50
2018-05-02T16:05:58.027Z,88.70
2018-05-02T16:08:26.095Z,89.40
2018-05-02T16:10:54.160Z,88.40
2018-05-02T16:13:22.550Z,87.80
2018-05-02T16:15:50.623Z,87.70
2018-05-02T16:18:18.696Z,88.70
2018-05-02T16:20:47.739Z,87.10
2018-05-02T16:23:16.536Z,89.50
2018-05-02T16:25:44.622Z,89.30
2018-05-02T16:28:13.135Z,90.30
2018-05-02T16:30:41.192Z,88.70
2018-05-02T16:33:09.342Z,90.30
2018-05-02T16:35:37.660Z,90.00
2018-05-02T16:38:05.723Z,89.50
2018-05-02T16:40:33.806Z,90.10
2018-05-02T16:43:01.979Z,90.20
2018-05-02T16:45:30.035Z,90.20
2018-05-02T16:47:58.142Z,90.20
2018-05-02T16:50:27.297Z,90.60
2018-05-02T16:52:55.366Z,90.60
2018-05-02T16:55:23.436Z,90.50
2018-05-02T16:57:51.825Z,90.30
2018-05-02T17:00:19.895Z,90.00
2018-05-02T17:02:47.978Z,89.80
2018-05-02T17:05:16.348Z,90.40
2018-05-02T17:07:44.424Z,90.40
2018-05-02T17:10:12.498Z,90.00
2018-05-02T17:12:40.874Z,90.20
2018-05-02T17:15:08.927Z,89.50
2018-05-02T17:17:37.044Z,89.10
2018-05-02T17:20:05.387Z,90.10
2018-05-02T17:22:33.637Z,89.60
2018-05-02T17:25:01.709Z,90.00
2018-05-02T17:27:30.218Z,90.70
2018-05-02T17:29:58.282Z,90.30
2018-05-02T17:32:26.360Z,90.20
2018-05-02T17:34:54.764Z,90.10
2018-05-02T17:37:23.600Z,90.90
2018-05-02T17:39:51.671Z,90.80
2018-05-02T17:42:19.877Z,91.50
2018-05-02T17:44:47.958Z,91.80
2018-05-02T17:47:16.036Z,91.40
2018-05-02T17:49:45.011Z,93.70
2018-05-02T17:52:13.081Z,93.60
2018-05-02T17:54:41.156Z,94.20
2018-05-02T17:57:09.512Z,94.30
2018-05-02T17:59:37.589Z,94.70
2018-05-02T18:02:05.652Z,95.00
2018-05-02T18:04:34.037Z,95.50
2018-05-02T18:07:02.126Z,96.40
2018-05-02T18:09:30.791Z,96.10
2018-05-02T18:11:59.172Z,96.60
2018-05-02T18:14:27.244Z,97.60
2018-05-02T18:16:55.317Z,98.10
2018-05-02T18:19:23.454Z,98.40
2018-05-02T18:21:51.518Z,98.60
2018-05-02T18:24:20.004Z,98.90
2018-05-02T18:26:48.552Z,99.30
2018-05-02T18:29:17.382Z,99.90
2018-05-02T18:31:45.440Z,99.90
2018-05-02T18:34:13.824Z,99.90
2018-05-02T18:36:41.893Z,99.90
2018-05-02T18:39:09.962Z,99.90
2018-05-02T18:41:38.501Z,99.90
2018-05-02T18:44:06.582Z,99.90
2018-05-02T18:46:34.651Z,99.90
2018-05-02T18:49:03.953Z,99.90
2018-05-02T18:51:32.783Z,99.90
2018-05-02T18:54:00.851Z,99.90
2018-05-02T18:56:29.097Z,99.90
2018-05-02T18:58:57.919Z,99.90
2018-05-02T19:01:26.000Z,99.90
2018-05-02T19:03:54.551Z,99.90
2018-05-02T19:06:23.365Z,99.90
2018-05-02T19:08:51.434Z,99.90
2018-05-02T19:11:19.801Z,99.90
2018-05-02T19:13:53.637Z,99.90
2018-05-02T19:16:22.009Z,99.90
2018-05-02T19:18:55.769Z,99.90
2018-05-02T19:21:24.113Z,99.90
2018-05-02T19:23:52.214Z,99.90
2018-05-02T19:26:27.900Z,99.90
2018-05-02T19:28:56.271Z,99.90
2018-05-02T19:31:30.037Z,99.90
2018-05-02T19:33:59.001Z,99.90
2018-05-02T19:36:27.067Z,99.90
2018-05-02T19:38:55.185Z,99.90
2018-05-02T19:41:30.013Z,99.90
2018-05-02T19:44:02.813Z,99.90
2018-05-02T19:46:31.064Z,99.90
2018-05-02T19:48:59.123Z,99.90
2018-05-02T19:51:32.871Z,99.90
2018-05-02T19:54:01.392Z,99.90
2018-05-02T19:56:29.469Z,99.90
2018-05-02T19:58:57.537Z,99.90
2018-05-02T20:01:31.628Z,99.90
2018-05-02T20:04:00.519Z,99.90
2018-05-02T20:06:29.124Z,99.90
2018-05-02T20:09:02.889Z,99.90
2018-05-02T20:11:37.020Z,99.90
2018-05-02T20:14:07.731Z,99.90
2018-05-02T20:16:36.172Z,99.90
2018-05-02T20:19:04.344Z,99.90
2018-05-02T20:21:32.420Z,99.90
2018-05-02T20:24:01.307Z,99.90
2018-05-02T20:26:29.840Z,99.90
2018-05-02T20:28:57.910Z,99.90
2018-05-02T20:31:26.116Z,99.90
2018-05-02T20:33:54.184Z,99.90
2018-05-02T20:36:22.486Z,99.90
2018-05-02T20:38:50.944Z,99.90
2018-05-02T20:41:19.000Z,99.90
2018-05-02T20:43:47.084Z,99.90
2018-05-02T20:46:15.780Z,99.90
2018-05-02T20:48:43.854Z,99.90
2018-05-02T20:51:11.925Z,99.90
2018-05-02T20:53:40.593Z,99.90
2018-05-02T20:56:08.675Z,99.90
2018-05-02T20:58:36.738Z,99.90
2018-05-02T21:01:05.432Z,99.90
2018-05-02T21:03:33.525Z,99.90
2018-05-02T21:06:02.360Z,99.90
2018-05-02T21:08:30.865Z,99.90
2018-05-02T21:10:58.945Z,99.90
2018-05-02T21:13:27.013Z,99.90
2018-05-02T21:15:55.405Z,99.90
2018-05-02T21:18:23.495Z,99.90
2018-05-02T21:20:52.320Z,99.90
2018-05-02T21:23:20.523Z,99.90
2018-05-02T21:25:48.593Z,99.90
2018-05-02T21:28:16.761Z,99.90
2018-05-02T21:30:45.154Z,99.90
2018-05-02T21:33:13.228Z,99.90
2018-05-02T21:35:41.291Z,99.90
2018-05-02T21:38:09.672Z,99.90
2018-05-02T21:40:37.818Z,99.90
2018-05-02T21:43:05.796Z,99.90
2018-05-02T21:45:34.100Z,99.90
2018-05-02T21:48:02.172Z,99.90
2018-05-02T21:50:30.240Z,99.90
2018-05-02T21:52:58.398Z,99.90
2018-05-02T21:55:26.461Z,99.90
2018-05-02T21:57:54.522Z,99.90
2018-05-02T22:00:22.716Z,99.90
2018-05-02T22:02:50.781Z,99.90
2018-05-02T22:05:18.912Z,99.90
2018-05-02T22:07:47.370Z,99.90
2018-05-02T22:10:16.203Z,99.90
2018-05-02T22:12:44.279Z,99.90
2018-05-02T22:15:12.813Z,99.90
2018-05-02T22:17:41.639Z,99.90
2018-05-02T22:20:09.699Z,99.90
2018-05-02T22:22:38.085Z,99.90
2018-05-02T22:25:06.181Z,99.90
2018-05-02T22:27:34.256Z,99.90
2018-05-02T22:30:03.263Z,99.90
2018-05-02T22:32:31.289Z,99.90
2018-05-02T22:34:59.353Z,99.90
2018-05-02T22:37:27.602Z,99.90
2018-05-02T22:39:56.453Z,99.90
2018-05-02T22:42:26.335Z,99.90
2018-05-02T22:44:54.857Z,99.90
2018-05-02T22:47:22.935Z,99.90
2018-05-02T22:49:51.003Z,99.90
2018-05-02T22:52:19.690Z,99.90
2018-05-02T22:54:47.783Z,99.90
2018-05-02T22:57:17.046Z,99.90
2018-05-02T22:59:45.117Z,99.90
2018-05-02T23:02:13.199Z,99.90
2018-05-02T23:04:41.353Z,99.90
2018-05-02T23:07:09.421Z,99.90
2018-05-02T23:09:37.481Z,99.90
2018-05-02T23:12:06.131Z,99.90
2018-05-02T23:14:34.971Z,99.90
2018-05-02T23:17:03.038Z,99.90
2018-05-02T23:19:31.218Z,99.90
2018-05-02T23:21:59.296Z,99.90
2018-05-02T23:24:27.370Z,99.90
2018-05-02T23:26:56.073Z,99.90
2018-05-02T23:29:24.144Z,99.90
2018-05-02T23:31:52.672Z,99.90
2018-05-02T23:34:21.196Z,99.90
2018-05-02T23:36:49.270Z,99.90
2018-05-02T23:39:17.338Z,99.90
2018-05-02T23:41:45.722Z,99.90
2018-05-02T23:44:13.790Z,99.90
2018-05-02T23:46:41.848Z,99.90
2018-05-02T23:49:10.246Z,99.90
2018-05-02T23:51:38.314Z,99.90
2018-05-02T23:54:06.394Z,99.90
2018-05-02T23:56:34.560Z,99.90
2018-05-02T23:59:02.628Z,99.90
